Time;durP1;ratioP1;P1;durP2;ratioP2;P2;SDS_P1;SDS_P2;PMS_P1;PMS_P2;Temp;Humidity;BMP_temperature;BMP_pressure;BME280_temperature;BME280_humidity;BME280_pressure;Samples;Min_cycle;Max_cycle;Signal;HPM_P1;HPM_P2
2023/06/12 00:04:06;;;;;;;6.00;5.60;;;21.20;68.10;;;;;;10621053;27;20234;-84
2023/06/12 00:09:08;;;;;;;5.67;5.33;;;21.20;69.60;;;;;;10608398;27;20647;-85
2023/06/12 00:14:12;;;;;;;6.50;6.00;;;21.10;70.20;;;;;;10608249;27;20286;-84
2023/06/12 00:19:15;;;;;;;7.00;6.50;;;21.10;68.90;;;;;;10588382;27;20660;-83
2023/06/12 00:24:17;;;;;;;6.57;6.07;;;21.10;68.70;;;;;;10611981;27;20243;-85
2023/06/12 00:29:20;;;;;;;6.43;6.03;;;21.10;68.80;;;;;;10616750;27;20208;-84
2023/06/12 00:34:23;;;;;;;6.63;6.20;;;21.00;68.60;;;;;;10594777;27;20291;-84
2023/06/12 00:39:25;;;;;;;5.57;5.27;;;21.00;67.80;;;;;;10604810;27;20837;-85
2023/06/12 00:44:28;;;;;;;6.40;6.00;;;21.00;69.70;;;;;;10591592;27;20277;-84
2023/06/12 00:49:31;;;;;;;6.20;5.70;;;20.90;68.70;;;;;;10585968;27;20276;-84
2023/06/12 00:54:33;;;;;;;6.27;5.77;;;20.90;68.50;;;;;;10589154;27;20658;-82
2023/06/12 00:59:37;;;;;;;6.03;5.63;;;20.80;69.50;;;;;;10567337;27;20230;-84
2023/06/12 01:04:42;;;;;;;5.70;5.30;;;20.80;69.40;;;;;;10586796;27;20229;-84
2023/06/12 01:09:55;;;;;;;6.10;5.70;;;20.80;69.40;;;;;;10591189;27;20222;-84
2023/06/12 01:14:59;;;;;;;7.20;6.60;;;20.70;69.30;;;;;;10589268;27;20191;-84
2023/06/12 01:20:10;;;;;;;6.93;6.43;;;20.70;69.30;;;;;;10606361;27;20233;-84
2023/06/12 01:25:52;;;;;;;6.30;5.90;;;20.60;68.70;;;;;;10599306;27;20212;-84
2023/06/12 01:31:13;;;;;;;6.13;5.73;;;20.60;69.10;;;;;;10583785;27;20357;-84
2023/06/12 01:36:23;;;;;;;6.50;6.00;;;20.60;70.30;;;;;;10584665;27;20602;-84
2023/06/12 01:41:29;;;;;;;7.00;6.30;;;20.60;71.00;;;;;;10594741;28;20630;-84
2023/06/12 01:46:35;;;;;;;6.67;6.17;;;20.60;71.20;;;;;;10583977;28;20577;-84
2023/06/12 01:51:39;;;;;;;6.17;5.77;;;20.60;70.40;;;;;;10594589;27;20208;-84
2023/06/12 01:56:43;;;;;;;6.33;5.93;;;20.60;70.80;;;;;;10611589;27;20200;-84
2023/06/12 02:01:46;;;;;;;7.57;6.80;;;20.50;71.10;;;;;;10595668;27;20711;-84
2023/06/12 02:06:50;;;;;;;6.63;6.23;;;20.50;71.20;;;;;;10602660;27;20238;-82
2023/06/12 02:11:52;;;;;;;6.57;6.07;;;20.50;71.60;;;;;;10620560;27;20590;-84
2023/06/12 02:16:55;;;;;;;7.07;6.53;;;20.40;71.30;;;;;;10619669;27;20204;-84
2023/06/12 02:22:00;;;;;;;7.30;6.70;;;20.40;71.70;;;;;;10613921;27;20207;-83
2023/06/12 02:27:02;;;;;;;6.83;6.43;;;20.30;72.10;;;;;;10600979;27;20195;-84
2023/06/12 02:32:05;;;;;;;6.90;6.30;;;20.20;72.30;;;;;;10595153;27;20565;-84
2023/06/12 02:37:10;;;;;;;6.40;6.00;;;20.20;72.60;;;;;;10592882;27;20581;-83
2023/06/12 02:42:14;;;;;;;6.63;6.23;;;20.10;72.90;;;;;;10601262;27;20188;-84
2023/06/12 02:47:18;;;;;;;6.17;5.77;;;20.10;73.20;;;;;;10589127;27;20224;-84
2023/06/12 02:52:23;;;;;;;6.97;6.37;;;20.00;72.00;;;;;;10598358;27;20187;-84
2023/06/12 02:57:25;;;;;;;6.20;5.80;;;20.00;72.90;;;;;;10613813;27;20710;-83
2023/06/12 03:02:29;;;;;;;7.30;6.20;;;19.90;74.10;;;;;;10587795;27;20303;-84
2023/06/12 03:07:36;;;;;;;6.73;6.33;;;19.80;74.30;;;;;;10589605;27;20211;-83
2023/06/12 03:12:39;;;;;;;7.13;6.63;;;19.80;74.60;;;;;;10590285;27;20199;-81
2023/06/12 03:17:42;;;;;;;6.50;6.10;;;19.70;74.90;;;;;;10598729;27;20315;-84
2023/06/12 03:22:46;;;;;;;6.57;6.17;;;19.70;74.80;;;;;;10591685;27;20303;-83
2023/06/12 03:27:50;;;;;;;7.10;6.50;;;19.60;75.20;;;;;;10592928;27;20223;-82
2023/06/12 03:32:56;;;;;;;6.57;6.07;;;19.60;75.80;;;;;;10591653;27;20420;-84
2023/06/12 03:38:00;;;;;;;6.93;6.33;;;19.60;76.70;;;;;;10579607;22;20217;-77
2023/06/12 03:43:02;;;;;;;6.20;5.70;;;19.50;76.40;;;;;;10463020;28;20221;-78
2023/06/12 03:48:06;;;;;;;7.23;6.63;;;19.60;77.20;;;;;;10462471;28;20221;-77
2023/06/12 03:53:09;;;;;;;7.00;6.50;;;19.50;77.10;;;;;;10469158;28;20230;-78
2023/06/12 03:58:16;;;;;;;7.60;7.10;;;19.50;77.60;;;;;;10459662;28;20597;-79
2023/06/12 04:03:21;;;;;;;7.23;6.73;;;19.50;77.80;;;;;;10465237;28;20703;-78
2023/06/12 04:08:25;;;;;;;7.00;6.50;;;19.50;78.00;;;;;;10443312;28;20267;-79
2023/06/12 04:13:27;;;;;;;7.17;6.67;;;19.50;78.50;;;;;;10462962;28;20224;-79
2023/06/12 04:18:30;;;;;;;6.70;6.20;;;19.50;77.80;;;;;;10477578;28;20284;-78
2023/06/12 04:23:37;;;;;;;7.57;6.97;;;19.50;78.30;;;;;;10459552;28;20233;-79
2023/06/12 04:28:41;;;;;;;6.90;6.30;;;19.50;79.20;;;;;;10459819;28;20221;-79
2023/06/12 04:33:43;;;;;;;7.40;6.90;;;19.50;78.90;;;;;;10462170;28;20277;-79
2023/06/12 04:38:50;;;;;;;7.00;6.50;;;19.50;79.80;;;;;;10441592;28;20305;-78
2023/06/12 04:43:58;;;;;;;7.90;7.40;;;19.60;79.90;;;;;;10487970;28;20309;-78
2023/06/12 04:49:03;;;;;;;7.80;7.30;;;19.60;80.00;;;;;;10460226;28;20221;-77
2023/06/12 04:54:09;;;;;;;7.63;7.00;;;19.60;79.60;;;;;;10459579;28;20668;-79
2023/06/12 04:59:11;;;;;;;9.73;7.50;;;19.60;79.70;;;;;;10459087;28;20217;-78
2023/06/12 05:04:14;;;;;;;8.10;7.50;;;19.60;81.10;;;;;;10459282;28;20218;-79
2023/06/12 05:09:19;;;;;;;8.37;7.57;;;19.60;80.90;;;;;;10458657;28;20213;-79
2023/06/12 05:14:22;;;;;;;7.87;7.27;;;19.70;81.10;;;;;;10464912;28;20736;-78
2023/06/12 05:19:25;;;;;;;8.00;7.23;;;19.70;80.60;;;;;;10481839;28;20229;-78
2023/06/12 05:24:29;;;;;;;7.23;6.73;;;19.80;81.40;;;;;;10454677;28;20220;-79
2023/06/12 05:29:31;;;;;;;9.00;8.20;;;19.80;81.50;;;;;;10455739;28;20626;-79
2023/06/12 05:34:33;;;;;;;7.60;6.90;;;19.90;81.70;;;;;;10453463;28;20476;-80
2023/06/12 05:39:37;;;;;;;8.23;7.43;;;20.00;82.00;;;;;;10475844;28;20283;-80
2023/06/12 05:44:40;;;;;;;7.27;6.77;;;20.10;82.10;;;;;;10488788;28;20213;-78
2023/06/12 05:49:42;;;;;;;8.97;8.13;;;20.20;83.10;;;;;;10467174;28;20213;-80
2023/06/12 05:54:46;;;;;;;7.70;7.10;;;20.30;83.30;;;;;;10466432;28;20301;-79
2023/06/12 05:59:49;;;;;;;7.63;7.00;;;20.40;80.50;;;;;;10460818;28;20213;-80
2023/06/12 06:04:53;;;;;;;6.27;5.77;;;20.50;79.70;;;;;;10445909;28;20221;-79
2023/06/12 06:09:57;;;;;;;8.33;7.63;;;20.60;81.10;;;;;;10461000;28;20222;-80
2023/06/12 06:14:59;;;;;;;7.27;6.67;;;20.70;82.00;;;;;;10482643;28;20207;-79
2023/06/12 06:20:05;;;;;;;8.90;8.10;;;20.90;80.80;;;;;;10455402;28;20700;-79
2023/06/12 06:25:10;;;;;;;6.87;6.37;;;21.00;77.80;;;;;;10471407;28;20267;-78
2023/06/12 06:30:12;;;;;;;7.77;7.17;;;21.10;77.30;;;;;;10460975;28;20248;-79
2023/06/12 06:35:15;;;;;;;7.40;6.90;;;21.20;78.40;;;;;;10459568;28;20566;-79
2023/06/12 06:40:18;;;;;;;8.00;7.40;;;21.40;77.60;;;;;;10475611;28;20228;-79
2023/06/12 06:45:21;;;;;;;8.40;7.60;;;21.60;78.90;;;;;;10489143;28;20225;-79
2023/06/12 06:50:25;;;;;;;7.40;6.90;;;22.00;76.60;;;;;;10459928;28;20209;-78
2023/06/12 06:55:28;;;;;;;7.20;6.70;;;22.30;75.90;;;;;;10460711;28;20187;-78
2023/06/12 07:00:32;;;;;;;7.27;6.77;;;22.70;73.90;;;;;;10459031;28;20280;-79
2023/06/12 07:05:35;;;;;;;6.67;6.27;;;23.00;73.60;;;;;;10458379;28;20225;-79
2023/06/12 07:10:38;;;;;;;7.67;7.00;;;23.40;71.10;;;;;;10469599;28;20276;-79
2023/06/12 07:15:40;;;;;;;7.27;6.57;;;23.60;72.30;;;;;;10473204;28;20226;-79
2023/06/12 07:20:43;;;;;;;7.27;6.73;;;24.00;70.00;;;;;;10485777;28;20231;-79
2023/06/12 07:25:46;;;;;;;6.33;5.83;;;24.50;70.40;;;;;;10476014;28;20675;-79
2023/06/12 07:30:48;;;;;;;7.20;6.57;;;24.90;68.70;;;;;;10468890;28;20221;-79
2023/06/12 07:35:51;;;;;;;7.20;6.53;;;25.30;67.10;;;;;;10488408;28;20218;-79
2023/06/12 07:40:54;;;;;;;7.47;6.87;;;25.90;67.80;;;;;;10486925;28;20662;-79
2023/06/12 07:45:56;;;;;;;6.83;6.33;;;26.40;66.50;;;;;;10481274;28;20302;-80
2023/06/12 07:50:59;;;;;;;6.80;6.30;;;27.00;64.20;;;;;;10450199;28;20209;-79
2023/06/12 07:56:03;;;;;;;7.17;6.60;;;27.50;63.00;;;;;;10457032;28;20206;-80
2023/06/12 08:01:06;;;;;;;5.90;5.40;;;27.90;62.10;;;;;;10466251;28;20249;-79
2023/06/12 08:06:11;;;;;;;6.80;6.20;;;28.40;61.10;;;;;;10467758;28;20316;-80
2023/06/12 08:11:15;;;;;;;6.63;6.13;;;28.80;59.80;;;;;;10459929;28;20222;-80
2023/06/12 08:16:23;;;;;;;5.80;5.40;;;29.20;57.50;;;;;;10471282;28;20286;-79
2023/06/12 08:21:26;;;;;;;5.47;5.17;;;29.50;56.10;;;;;;10468133;28;20213;-78
2023/06/12 08:26:30;;;;;;;5.70;5.30;;;29.70;54.50;;;;;;10467884;28;20605;-79
2023/06/12 08:31:33;;;;;;;6.17;5.33;;;29.90;53.90;;;;;;10465468;28;20228;-80
2023/06/12 08:36:36;;;;;;;5.50;5.10;;;30.30;53.50;;;;;;10472582;28;20201;-80
2023/06/12 08:41:52;;;;;;;6.00;5.60;;;30.50;53.30;;;;;;10439949;28;20240;-80
2023/06/12 08:47:00;;;;;;;5.87;5.47;;;30.40;54.70;;;;;;10460179;28;20217;-78
2023/06/12 08:52:03;;;;;;;5.93;5.53;;;30.20;52.70;;;;;;10476892;28;20205;-80
2023/06/12 08:57:07;;;;;;;5.53;5.03;;;29.90;52.30;;;;;;10457274;28;20297;-79
2023/06/12 09:02:10;;;;;;;6.00;5.50;;;29.50;52.70;;;;;;10472729;28;20232;-80
2023/06/12 09:07:15;;;;;;;10.40;6.00;;;29.60;52.30;;;;;;10471960;28;20262;-79
2023/06/12 09:12:18;;;;;;;6.30;5.80;;;29.70;51.80;;;;;;10457073;28;20197;-80
2023/06/12 09:17:26;;;;;;;5.93;5.43;;;29.50;51.30;;;;;;10476222;28;20208;-79
2023/06/12 09:22:28;;;;;;;5.70;5.23;;;29.90;51.70;;;;;;10468684;28;20194;-79
2023/06/12 09:27:41;;;;;;;6.40;5.90;;;30.40;51.50;;;;;;10457517;28;20487;-80
2023/06/12 09:32:44;;;;;;;6.27;5.27;;;30.90;49.80;;;;;;10478185;28;20698;-80
2023/06/12 09:37:46;;;;;;;5.50;5.10;;;31.60;49.50;;;;;;10509081;22;20266;-85
2023/06/12 09:42:50;;;;;;;5.57;5.20;;;32.30;48.50;;;;;;10544410;28;20222;-84
2023/06/12 09:47:53;;;;;;;5.30;4.90;;;33.00;47.20;;;;;;10548310;28;20220;-84
2023/06/12 09:52:59;;;;;;;6.00;5.60;;;32.90;46.70;;;;;;10549766;28;20192;-85
2023/06/12 09:58:07;;;;;;;6.30;5.83;;;32.30;45.90;;;;;;10540760;28;20274;-84
2023/06/12 10:03:13;;;;;;;5.20;4.80;;;33.40;46.40;;;;;;10547465;28;20596;-84
2023/06/12 10:08:16;;;;;;;4.90;4.60;;;35.30;45.20;;;;;;10534787;28;20302;-85
2023/06/12 10:13:20;;;;;;;5.30;4.90;;;37.20;43.60;;;;;;10536195;28;20741;-84
2023/06/12 10:18:24;;;;;;;5.43;5.03;;;37.30;43.00;;;;;;10564657;28;20671;-83
2023/06/12 10:23:26;;;;;;;6.60;5.27;;;36.40;41.60;;;;;;10557447;28;20196;-84
2023/06/12 10:28:30;;;;;;;7.53;6.00;;;35.20;42.70;;;;;;10556307;28;20640;-84
2023/06/12 10:33:32;;;;;;;5.50;5.10;;;33.70;43.30;;;;;;10552967;28;20197;-84
2023/06/12 10:38:44;;;;;;;6.10;5.70;;;32.30;45.00;;;;;;10557072;28;20718;-84
2023/06/12 10:43:48;;;;;;;6.60;6.20;;;31.10;46.00;;;;;;10557410;28;20193;-84
2023/06/12 10:48:50;;;;;;;6.07;5.57;;;30.20;47.80;;;;;;10558667;28;20220;-84
2023/06/12 10:53:56;;;;;;;6.63;6.00;;;29.60;48.00;;;;;;10558422;28;20197;-85
2023/06/12 10:59:00;;;;;;;5.70;5.20;;;29.00;47.00;;;;;;10545773;28;20216;-84
2023/06/12 11:04:03;;;;;;;6.03;5.53;;;28.50;49.60;;;;;;10557744;28;20265;-82
2023/06/12 11:09:10;;;;;;;6.20;5.80;;;28.10;49.80;;;;;;10545587;28;20246;-84
2023/06/12 11:14:14;;;;;;;7.10;5.53;;;27.80;50.90;;;;;;10552155;28;20185;-84
2023/06/12 11:19:16;;;;;;;7.00;6.30;;;27.50;50.00;;;;;;10546485;28;20260;-83
2023/06/12 11:24:18;;;;;;;5.97;5.47;;;27.40;50.30;;;;;;10548593;28;20205;-83
2023/06/12 11:29:25;;;;;;;6.07;5.67;;;27.40;51.80;;;;;;10537775;28;20216;-84
2023/06/12 11:34:33;;;;;;;6.67;6.17;;;27.30;50.30;;;;;;10550677;28;20193;-83
2023/06/12 11:39:35;;;;;;;6.20;5.80;;;27.10;49.60;;;;;;10545410;28;20243;-83
2023/06/12 11:44:39;;;;;;;6.10;5.70;;;26.90;51.20;;;;;;10550712;28;20378;-84
2023/06/12 11:49:41;;;;;;;6.60;6.00;;;26.80;49.10;;;;;;10520469;28;20243;-83
2023/06/12 11:54:57;;;;;;;5.83;5.33;;;26.60;49.10;;;;;;10539534;28;20185;-83
2023/06/12 12:00:07;;;;;;;6.53;6.03;;;26.50;50.40;;;;;;10550423;28;20249;-82
2023/06/12 12:05:16;;;;;;;5.67;5.17;;;26.50;49.70;;;;;;10534424;28;20353;-84
2023/06/12 12:10:18;;;;;;;6.00;5.60;;;26.50;50.80;;;;;;10544520;28;20231;-83
2023/06/12 12:15:22;;;;;;;6.43;5.93;;;26.50;49.60;;;;;;10549617;28;20202;-84
2023/06/12 12:20:26;;;;;;;6.00;5.50;;;26.50;49.00;;;;;;10536284;28;20213;-84
2023/06/12 12:25:29;;;;;;;6.33;5.83;;;26.50;51.00;;;;;;10549479;28;20295;-84
2023/06/12 12:30:33;;;;;;;7.23;5.03;;;26.50;50.00;;;;;;10549938;28;20217;-84
2023/06/12 12:35:35;;;;;;;6.40;5.90;;;26.60;51.00;;;;;;10551012;28;20260;-83
2023/06/12 12:40:37;;;;;;;5.80;5.27;;;26.60;49.40;;;;;;10549487;28;20232;-84
2023/06/12 12:45:41;;;;;;;6.60;5.80;;;26.60;49.50;;;;;;10553341;28;20212;-83
2023/06/12 12:50:43;;;;;;;6.80;6.30;;;26.60;49.60;;;;;;10541883;28;20212;-84
2023/06/12 12:55:45;;;;;;;6.13;5.67;;;26.60;50.20;;;;;;10548740;28;20201;-84
2023/06/12 13:00:48;;;;;;;5.97;5.57;;;26.60;49.40;;;;;;10540529;28;20299;-83
2023/06/12 13:05:50;;;;;;;7.67;5.50;;;26.70;49.30;;;;;;10540173;28;20216;-85
2023/06/12 13:10:52;;;;;;;4.83;4.53;;;26.70;49.20;;;;;;10540553;28;20244;-85
2023/06/12 13:15:56;;;;;;;5.57;5.17;;;26.70;48.40;;;;;;10546614;28;20205;-83
2023/06/12 13:20:58;;;;;;;6.00;5.60;;;26.60;49.30;;;;;;10538529;28;20212;-85
2023/06/12 13:26:00;;;;;;;7.43;6.30;;;26.60;49.80;;;;;;10528647;28;20208;-85
2023/06/12 13:31:04;;;;;;;5.67;5.27;;;26.50;49.70;;;;;;10558925;28;20224;-85
2023/06/12 13:36:08;;;;;;;6.60;6.10;;;26.50;49.20;;;;;;10525667;28;20674;-84
2023/06/12 13:41:11;;;;;;;5.77;5.37;;;26.50;50.10;;;;;;10528307;28;20231;-82
2023/06/12 13:46:14;;;;;;;6.10;5.60;;;26.40;48.00;;;;;;10534252;28;20214;-85
2023/06/12 13:51:17;;;;;;;6.30;5.67;;;26.40;48.50;;;;;;10544061;28;20220;-85
2023/06/12 13:56:19;;;;;;;5.70;5.30;;;26.40;50.00;;;;;;10546256;28;20280;-85
2023/06/12 14:01:24;;;;;;;7.10;6.40;;;26.40;49.70;;;;;;10538368;28;20220;-82
2023/06/12 14:06:27;;;;;;;6.90;6.37;;;26.50;48.20;;;;;;10543980;28;20550;-85
2023/06/12 14:11:30;;;;;;;5.93;5.50;;;26.60;49.20;;;;;;10544689;28;20212;-85
2023/06/12 14:16:33;;;;;;;6.63;6.10;;;26.60;50.10;;;;;;10547380;28;20699;-84
2023/06/12 14:21:35;;;;;;;7.17;6.00;;;26.60;47.30;;;;;;10550147;28;20311;-85
2023/06/12 14:26:37;;;;;;;5.80;5.40;;;26.50;49.30;;;;;;10521866;28;20216;-84
2023/06/12 14:31:41;;;;;;;5.90;5.40;;;26.60;47.10;;;;;;10549941;28;20212;-83
2023/06/12 14:36:43;;;;;;;5.80;5.40;;;26.60;46.90;;;;;;10520775;28;20192;-84
2023/06/12 14:41:45;;;;;;;5.40;5.00;;;26.60;48.00;;;;;;10537588;28;20606;-84
2023/06/12 14:46:49;;;;;;;7.20;6.50;;;26.50;49.00;;;;;;10537919;28;20235;-82
2023/06/12 14:51:51;;;;;;;5.53;5.13;;;26.50;48.60;;;;;;10541156;28;20221;-83
2023/06/12 14:56:53;;;;;;;6.40;5.90;;;26.40;50.30;;;;;;10559046;28;20203;-83
2023/06/12 15:01:56;;;;;;;6.17;5.60;;;26.40;50.00;;;;;;10551278;28;20608;-84
2023/06/12 15:06:58;;;;;;;6.13;5.60;;;26.50;47.00;;;;;;10552637;28;20220;-83
2023/06/12 15:12:00;;;;;;;5.87;5.47;;;26.40;48.70;;;;;;10573945;28;20209;-84
2023/06/12 15:17:05;;;;;;;6.20;5.80;;;26.40;49.60;;;;;;10531501;28;20193;-84
2023/06/12 15:22:07;;;;;;;7.40;6.70;;;26.50;48.10;;;;;;10548984;28;20227;-84
2023/06/12 15:27:09;;;;;;;6.57;6.07;;;26.40;48.50;;;;;;10547883;28;20216;-84
2023/06/12 15:32:13;;;;;;;6.40;5.87;;;26.40;47.90;;;;;;10538028;28;20224;-84
2023/06/12 15:37:17;;;;;;;5.57;5.17;;;26.50;49.00;;;;;;10542202;28;20257;-84
2023/06/12 15:42:19;;;;;;;5.30;4.90;;;26.50;49.30;;;;;;10536569;28;20220;-84
2023/06/12 15:47:23;;;;;;;5.67;5.27;;;26.60;48.00;;;;;;10528813;28;20212;-84
2023/06/12 15:52:25;;;;;;;6.93;6.17;;;26.60;48.00;;;;;;10544414;28;20208;-83
2023/06/12 15:57:27;;;;;;;5.70;5.30;;;26.60;46.40;;;;;;10540993;28;20605;-83
2023/06/12 16:02:30;;;;;;;6.03;5.63;;;26.60;46.70;;;;;;10520012;28;20212;-82
2023/06/12 16:07:34;;;;;;;5.90;5.40;;;26.50;48.70;;;;;;10554573;28;20227;-82
2023/06/12 16:12:36;;;;;;;5.97;5.37;;;26.50;46.50;;;;;;10547703;28;20212;-83
2023/06/12 16:17:39;;;;;;;5.50;5.00;;;26.40;47.70;;;;;;10543235;28;20219;-82
2023/06/12 16:22:41;;;;;;;6.43;5.83;;;26.40;48.50;;;;;;10542120;28;20200;-81
2023/06/12 16:27:45;;;;;;;5.67;5.27;;;26.40;49.30;;;;;;10544810;28;20212;-82
2023/06/12 16:32:50;;;;;;;6.20;5.70;;;26.30;46.20;;;;;;10550470;28;20208;-83
2023/06/12 16:37:57;;;;;;;5.17;4.77;;;26.30;45.30;;;;;;10522773;28;20192;-83
2023/06/12 16:42:59;;;;;;;5.27;4.97;;;26.20;48.50;;;;;;10533755;28;20196;-83
2023/06/12 16:48:02;;;;;;;5.90;5.43;;;26.20;46.60;;;;;;10560841;28;20233;-83
2023/06/12 16:53:05;;;;;;;6.77;5.60;;;26.20;47.80;;;;;;10544655;28;20200;-83
2023/06/12 16:58:10;;;;;;;5.80;5.40;;;26.10;49.40;;;;;;10548688;28;20208;-83
2023/06/12 17:03:15;;;;;;;5.83;5.43;;;26.00;50.90;;;;;;10532999;28;20554;-83
2023/06/12 17:08:17;;;;;;;7.63;7.03;;;25.90;50.50;;;;;;10540887;28;20327;-85
2023/06/12 17:13:19;;;;;;;13.93;12.23;;;25.80;52.90;;;;;;10537083;28;20244;-83
2023/06/12 17:18:23;;;;;;;7.80;7.20;;;25.70;56.00;;;;;;10527210;28;20209;-85
2023/06/12 17:23:25;;;;;;;6.13;5.57;;;25.60;52.20;;;;;;10535676;28;20251;-83
2023/06/12 17:28:27;;;;;;;8.17;7.07;;;25.60;50.20;;;;;;10508405;28;20236;-84
2023/06/12 17:33:31;;;;;;;5.97;5.47;;;25.50;51.80;;;;;;10538614;28;20204;-84
2023/06/12 17:38:33;;;;;;;9.23;8.20;;;25.50;49.30;;;;;;10544497;28;20220;-84
2023/06/12 17:43:35;;;;;;;8.10;7.40;;;25.50;49.10;;;;;;10529256;28;20300;-84
2023/06/12 17:48:39;;;;;;;7.63;6.90;;;25.40;50.10;;;;;;10522992;28;20247;-84
2023/06/12 17:53:41;;;;;;;6.10;5.60;;;25.40;51.20;;;;;;10539619;28;20231;-84
2023/06/12 17:58:44;;;;;;;6.53;6.03;;;25.30;50.30;;;;;;10525814;28;20293;-84
2023/06/12 18:03:47;;;;;;;6.17;5.67;;;25.30;51.00;;;;;;10530428;28;20204;-84
2023/06/12 18:08:49;;;;;;;6.00;5.60;;;25.30;52.10;;;;;;10529241;28;20293;-84
2023/06/12 18:13:51;;;;;;;6.30;5.73;;;25.20;52.60;;;;;;10523459;28;20208;-84
2023/06/12 18:18:55;;;;;;;6.40;5.90;;;25.10;52.40;;;;;;10540067;28;20205;-83
2023/06/12 18:23:57;;;;;;;5.67;5.27;;;25.10;53.80;;;;;;10539188;28;20200;-83
2023/06/12 18:29:00;;;;;;;7.23;5.30;;;25.00;51.30;;;;;;10548045;28;20220;-83
2023/06/12 18:34:03;;;;;;;5.50;5.00;;;24.90;50.30;;;;;;10542382;28;20204;-83
2023/06/12 18:39:05;;;;;;;5.30;4.90;;;24.80;52.50;;;;;;10556800;28;20213;-83
2023/06/12 18:44:07;;;;;;;4.60;4.30;;;24.80;55.70;;;;;;10558696;28;20205;-84
2023/06/12 18:49:11;;;;;;;5.23;4.83;;;24.70;55.20;;;;;;10555944;28;20217;-84
2023/06/12 18:54:13;;;;;;;6.13;5.30;;;24.60;55.00;;;;;;10527523;28;20209;-83
2023/06/12 18:59:15;;;;;;;5.57;5.17;;;24.50;55.00;;;;;;10548086;28;20681;-84
2023/06/12 19:04:19;;;;;;;5.63;5.13;;;24.40;53.40;;;;;;10534399;28;20197;-85
2023/06/12 19:09:21;;;;;;;5.60;5.20;;;24.40;55.10;;;;;;10544402;28;20225;-84
2023/06/12 19:14:23;;;;;;;6.50;5.07;;;24.30;54.90;;;;;;10546011;28;20222;-83
2023/06/12 19:19:27;;;;;;;5.57;5.13;;;24.30;56.60;;;;;;10535679;28;20216;-82
2023/06/12 19:24:29;;;;;;;5.20;4.77;;;24.10;59.70;;;;;;10546152;28;20196;-84
2023/06/12 19:29:31;;;;;;;4.97;4.63;;;24.00;54.80;;;;;;10546824;28;20232;-85
2023/06/12 19:34:34;;;;;;;5.60;5.20;;;24.00;55.60;;;;;;10545397;28;20312;-84
2023/06/12 19:39:41;;;;;;;6.70;4.80;;;23.90;54.50;;;;;;10538625;28;20637;-83
2023/06/12 19:44:43;;;;;;;4.33;4.03;;;23.80;53.90;;;;;;10542153;28;20201;-84
2023/06/12 19:49:47;;;;;;;5.30;4.90;;;23.80;52.60;;;;;;10540054;28;20220;-84
2023/06/12 19:54:49;;;;;;;5.50;4.90;;;23.70;53.10;;;;;;10517423;28;20272;-83
2023/06/12 19:59:51;;;;;;;5.23;4.83;;;23.60;53.30;;;;;;10528782;28;20656;-84
2023/06/12 20:04:55;;;;;;;5.03;4.73;;;23.60;52.70;;;;;;10538425;28;20197;-85
2023/06/12 20:09:58;;;;;;;5.47;5.10;;;23.50;53.80;;;;;;10541649;28;20220;-84
2023/06/12 20:15:01;;;;;;;15.50;13.00;;;23.50;53.40;;;;;;10541732;28;20200;-84
2023/06/12 20:20:06;;;;;;;19.67;17.77;;;23.40;53.20;;;;;;10539158;28;20212;-85
2023/06/12 20:25:09;;;;;;;5.83;5.33;;;23.40;52.70;;;;;;10528174;28;20269;-84
2023/06/12 20:30:18;;;;;;;5.40;4.90;;;23.30;53.10;;;;;;10506871;28;20248;-84
2023/06/12 20:35:22;;;;;;;5.30;4.80;;;23.30;52.80;;;;;;10534831;28;20195;-84
2023/06/12 20:40:24;;;;;;;5.23;4.83;;;23.20;52.10;;;;;;10550421;28;20274;-85
2023/06/12 20:45:26;;;;;;;5.17;4.77;;;23.10;52.70;;;;;;10533826;28;20665;-84
2023/06/12 20:50:30;;;;;;;4.70;4.23;;;23.00;54.20;;;;;;10540081;28;20225;-83
2023/06/12 20:55:32;;;;;;;5.03;4.63;;;23.00;53.60;;;;;;10538957;28;20235;-83
2023/06/12 21:00:34;;;;;;;5.13;4.80;;;22.90;54.60;;;;;;10542091;28;20250;-83
2023/06/12 21:05:39;;;;;;;6.10;4.60;;;22.80;54.10;;;;;;10541180;28;20222;-84
2023/06/12 21:10:42;;;;;;;5.37;4.97;;;22.70;53.40;;;;;;10544959;28;20303;-84
2023/06/12 21:15:44;;;;;;;4.67;4.27;;;22.60;53.30;;;;;;10508987;28;20192;-83
2023/06/12 21:20:51;;;;;;;5.13;4.73;;;22.50;54.40;;;;;;10526761;28;20212;-85
2023/06/12 21:25:53;;;;;;;4.57;4.17;;;22.40;54.20;;;;;;10555212;28;20201;-85
2023/06/12 21:30:55;;;;;;;5.60;5.10;;;22.30;54.00;;;;;;10547472;28;20251;-84
2023/06/12 21:35:58;;;;;;;4.73;4.40;;;22.20;54.90;;;;;;10538626;28;20257;-85
2023/06/12 21:41:01;;;;;;;5.30;4.77;;;22.10;55.30;;;;;;10544182;28;20224;-81
2023/06/12 21:46:03;;;;;;;5.50;5.10;;;22.00;54.90;;;;;;10543862;28;20549;-85
2023/06/12 21:51:06;;;;;;;5.10;4.70;;;22.00;54.70;;;;;;10532719;28;20588;-84
2023/06/12 21:56:08;;;;;;;5.30;4.90;;;21.90;55.30;;;;;;10531922;28;20217;-84
2023/06/12 22:01:10;;;;;;;5.13;4.73;;;21.90;54.90;;;;;;10539083;28;20307;-84
2023/06/12 22:06:14;;;;;;;4.93;4.43;;;21.80;54.30;;;;;;10540528;28;20220;-84
2023/06/12 22:11:16;;;;;;;5.30;4.80;;;21.80;54.60;;;;;;10534786;28;20216;-85
2023/06/12 22:16:18;;;;;;;5.63;5.23;;;21.80;54.60;;;;;;10548101;28;20200;-84
2023/06/12 22:21:22;;;;;;;5.27;4.80;;;21.90;54.80;;;;;;10536580;28;20748;-85
2023/06/12 22:26:24;;;;;;;5.67;5.13;;;21.80;54.60;;;;;;10552660;28;20251;-85
2023/06/12 22:31:27;;;;;;;4.70;4.40;;;21.80;55.40;;;;;;10536462;28;20299;-84
2023/06/12 22:36:31;;;;;;;4.87;4.47;;;21.70;54.30;;;;;;10541463;28;20189;-84
2023/06/12 22:41:34;;;;;;;5.00;4.60;;;21.70;55.20;;;;;;10544242;28;20261;-83
2023/06/12 22:46:36;;;;;;;5.20;4.80;;;21.70;54.50;;;;;;10562665;28;20667;-83
2023/06/12 22:51:40;;;;;;;4.93;4.53;;;21.70;54.60;;;;;;10548488;28;20304;-82
2023/06/12 22:56:42;;;;;;;4.30;4.00;;;21.60;55.10;;;;;;10544164;28;20196;-83
2023/06/12 23:01:44;;;;;;;4.83;4.47;;;21.60;54.40;;;;;;10544061;28;20269;-83
2023/06/12 23:06:47;;;;;;;5.37;4.90;;;21.50;53.90;;;;;;10548603;28;20221;-84
2023/06/12 23:11:49;;;;;;;5.47;4.97;;;21.40;55.40;;;;;;10547688;28;20236;-85
2023/06/12 23:16:54;;;;;;;4.90;4.50;;;21.30;55.20;;;;;;10549689;28;20206;-85
2023/06/12 23:21:57;;;;;;;4.90;4.50;;;21.20;55.60;;;;;;10549656;28;20227;-83
2023/06/12 23:27:00;;;;;;;5.60;5.10;;;21.10;56.60;;;;;;10547746;28;20581;-84
2023/06/12 23:32:02;;;;;;;5.10;4.70;;;21.00;56.50;;;;;;10538975;28;20223;-85
2023/06/12 23:37:07;;;;;;;5.53;5.13;;;21.00;56.60;;;;;;10547613;28;20636;-85
2023/06/12 23:42:09;;;;;;;4.90;4.50;;;20.90;56.70;;;;;;10546798;28;20228;-84
2023/06/12 23:47:11;;;;;;;5.63;5.23;;;20.80;56.30;;;;;;10547028;28;20295;-84
2023/06/12 23:52:15;;;;;;;4.53;4.13;;;20.70;57.10;;;;;;10546277;28;20217;-83
2023/06/12 23:57:17;;;;;;;5.47;5.07;;;20.60;57.30;;;;;;10546014;28;20258;-85
